sensor_id;sensor_type;location;lat;lon;timestamp;P1;durP1;ratioP1;P2;durP2;ratioP2
83417;SDS011;73351;0.000;0.000;2023-11-18T20:51:00;16.60;;;12.10;;
83417;SDS011;73351;0.000;0.000;2023-11-18T20:53:32;18.60;;;11.40;;
83417;SDS011;73351;0.000;0.000;2023-11-18T20:56:05;16.50;;;11.00;;
83417;SDS011;73351;0.000;0.000;2023-11-18T20:58:36;15.70;;;10.50;;
83417;SDS011;73351;0.000;0.000;2023-11-18T21:01:08;17.00;;;10.90;;
83417;SDS011;73351;0.000;0.000;2023-11-18T21:03:42;15.20;;;10.40;;
83417;SDS011;73351;0.000;0.000;2023-11-18T21:06:13;15.50;;;10.50;;
83417;SDS011;73351;0.000;0.000;2023-11-18T21:08:44;13.40;;;10.10;;
83417;SDS011;73351;0.000;0.000;2023-11-18T21:11:14;12.50;;;9.60;;
83417;SDS011;73351;0.000;0.000;2023-11-18T21:13:44;14.90;;;9.30;;
83417;SDS011;73351;0.000;0.000;2023-11-18T21:16:15;13.60;;;9.80;;
83417;SDS011;73351;0.000;0.000;2023-11-18T21:18:46;16.80;;;9.50;;
83417;SDS011;73351;0.000;0.000;2023-11-18T21:21:16;15.30;;;9.50;;
83417;SDS011;73351;0.000;0.000;2023-11-18T21:23:46;12.50;;;8.30;;
83417;SDS011;73351;0.000;0.000;2023-11-18T21:26:20;14.90;;;9.50;;
83417;SDS011;73351;0.000;0.000;2023-11-18T21:28:51;15.30;;;9.10;;
83417;SDS011;73351;0.000;0.000;2023-11-18T21:31:22;17.30;;;8.50;;
83417;SDS011;73351;0.000;0.000;2023-11-18T21:33:52;12.80;;;8.80;;
83417;SDS011;73351;0.000;0.000;2023-11-18T21:36:23;12.90;;;9.00;;
83417;SDS011;73351;0.000;0.000;2023-11-18T21:38:53;12.40;;;8.30;;
83417;SDS011;73351;0.000;0.000;2023-11-18T21:41:23;13.00;;;7.80;;
83417;SDS011;73351;0.000;0.000;2023-11-18T21:43:53;13.00;;;8.10;;
83417;SDS011;73351;0.000;0.000;2023-11-18T21:46:25;12.70;;;8.00;;
83417;SDS011;73351;0.000;0.000;2023-11-18T21:48:55;12.40;;;9.00;;
83417;SDS011;73351;0.000;0.000;2023-11-18T21:51:25;10.60;;;7.90;;
83417;SDS011;73351;0.000;0.000;2023-11-18T21:53:57;11.50;;;7.20;;
83417;SDS011;73351;0.000;0.000;2023-11-18T21:56:32;12.20;;;8.30;;
83417;SDS011;73351;0.000;0.000;2023-11-18T21:59:03;11.00;;;8.20;;
83417;SDS011;73351;0.000;0.000;2023-11-18T22:01:34;12.40;;;7.90;;
83417;SDS011;73351;0.000;0.000;2023-11-18T22:04:05;11.10;;;7.70;;
83417;SDS011;73351;0.000;0.000;2023-11-18T22:06:37;12.60;;;7.30;;
83417;SDS011;73351;0.000;0.000;2023-11-18T22:09:07;12.40;;;7.70;;
83417;SDS011;73351;0.000;0.000;2023-11-18T22:11:37;11.90;;;8.10;;
83417;SDS011;73351;0.000;0.000;2023-11-18T22:14:07;11.20;;;7.60;;
83417;SDS011;73351;0.000;0.000;2023-11-18T22:16:37;10.90;;;7.50;;
83417;SDS011;73351;0.000;0.000;2023-11-18T22:19:08;9.10;;;8.10;;
83417;SDS011;73351;0.000;0.000;2023-11-18T22:24:10;12.10;;;7.50;;
83417;SDS011;73351;0.000;0.000;2023-11-18T22:26:41;11.00;;;6.70;;
83417;SDS011;73351;0.000;0.000;2023-11-18T22:29:11;11.90;;;7.30;;
83417;SDS011;73351;0.000;0.000;2023-11-18T22:31:41;12.80;;;7.20;;
83417;SDS011;73351;0.000;0.000;2023-11-18T22:34:12;12.30;;;7.20;;
83417;SDS011;73351;0.000;0.000;2023-11-18T22:36:43;9.10;;;7.40;;
83417;SDS011;73351;0.000;0.000;2023-11-18T22:39:13;10.20;;;7.10;;
83417;SDS011;73351;0.000;0.000;2023-11-18T22:41:50;9.90;;;7.30;;
83417;SDS011;73351;0.000;0.000;2023-11-18T22:44:20;8.30;;;6.30;;
83417;SDS011;73351;0.000;0.000;2023-11-18T22:49:22;10.30;;;7.70;;
83417;SDS011;73351;0.000;0.000;2023-11-18T22:51:52;13.60;;;7.30;;
83417;SDS011;73351;0.000;0.000;2023-11-18T22:54:22;9.10;;;7.40;;
83417;SDS011;73351;0.000;0.000;2023-11-18T22:56:53;10.50;;;7.10;;
83417;SDS011;73351;0.000;0.000;2023-11-18T22:59:23;11.60;;;7.00;;
83417;SDS011;73351;0.000;0.000;2023-11-18T23:01:53;8.60;;;6.90;;
83417;SDS011;73351;0.000;0.000;2023-11-18T23:04:23;9.20;;;6.50;;
83417;SDS011;73351;0.000;0.000;2023-11-18T23:06:55;8.90;;;6.90;;
83417;SDS011;73351;0.000;0.000;2023-11-18T23:09:25;9.00;;;6.80;;
83417;SDS011;73351;0.000;0.000;2023-11-18T23:11:55;11.30;;;7.10;;
83417;SDS011;73351;0.000;0.000;2023-11-18T23:14:26;8.20;;;5.90;;
83417;SDS011;73351;0.000;0.000;2023-11-18T23:16:56;9.00;;;6.10;;
83417;SDS011;73351;0.000;0.000;2023-11-18T23:19:26;9.80;;;6.20;;
83417;SDS011;73351;0.000;0.000;2023-11-18T23:21:56;8.90;;;6.40;;
83417;SDS011;73351;0.000;0.000;2023-11-18T23:24:33;7.30;;;6.10;;
83417;SDS011;73351;0.000;0.000;2023-11-18T23:27:04;8.20;;;6.10;;
83417;SDS011;73351;0.000;0.000;2023-11-18T23:29:34;7.70;;;5.70;;
83417;SDS011;73351;0.000;0.000;2023-11-18T23:32:05;7.40;;;5.50;;
83417;SDS011;73351;0.000;0.000;2023-11-18T23:34:35;8.30;;;6.10;;
83417;SDS011;73351;0.000;0.000;2023-11-18T23:37:08;8.80;;;6.40;;
83417;SDS011;73351;0.000;0.000;2023-11-18T23:39:40;8.80;;;6.20;;
83417;SDS011;73351;0.000;0.000;2023-11-18T23:42:12;8.10;;;5.70;;
83417;SDS011;73351;0.000;0.000;2023-11-18T23:44:43;8.70;;;6.00;;
83417;SDS011;73351;0.000;0.000;2023-11-18T23:47:13;9.40;;;6.00;;
83417;SDS011;73351;0.000;0.000;2023-11-18T23:49:44;8.00;;;5.70;;
83417;SDS011;73351;0.000;0.000;2023-11-18T23:52:14;8.40;;;6.30;;
83417;SDS011;73351;0.000;0.000;2023-11-18T23:54:44;7.10;;;5.80;;
83417;SDS011;73351;0.000;0.000;2023-11-18T23:57:15;8.00;;;5.80;;
83417;SDS011;73351;0.000;0.000;2023-11-18T23:59:45;9.80;;;5.80;;
